Latest Weather Observations for Gelantipy

IDV60801

Issued at 1:52 pm EDT Thursday 17 January 2019 (issued every 10 minutes, with the page automatically refreshed every 10 minutes)

About weather observations | Map of weather stations | Latest weather observations for VIC | Other Formats
Station Details ID: 084142 Name: GELANTIPY Lat: -37.22 Lon: 148.26 Height: 755.0 m
Data from the previous 72 hours. | See also: Recent months at Gelantipy
Date/Time
EDT
Temp
°C
App
Temp
°C
Dew
Point
°C
Rel
Hum
%
Delta-T
°C
Wind Press
QNH
hPa
Press
MSL
hPa
Rain since
9am
mm
Dir  Spd
km/h
Gust
km/h
Spd
kts
Gust
kts
17/01:30pm 29.8 30.5 12.3 34 10.6 CALM 0 0 0 0 1013.2 1010.2 0.0
17/01:00pm 30.3 29.6 11.3 31 11.3 ENE 6 7 3 4 1013.4 1010.4 0.0
17/12:30pm 28.2 29.3 16.5 49 7.5 NE 6 9 3 5 1013.4 1010.4 0.0
17/12:00pm 27.3 26.8 12.5 40 8.9 NNE 7 11 4 6 1013.5 1010.5 0.0
17/11:30am 25.2 26.4 16.9 60 5.3 NNE 6 7 3 4 1013.5 1010.5 0.0
17/11:00am 24.9 23.9 13.5 49 6.9 N 11 13 6 7 1013.4 1010.4 0.0
17/10:30am 24.9 24.0 13.8 50 6.7 NNE 11 13 6 7 1013.4 1010.4 0.0
17/10:00am 24.8 24.4 14.0 51 6.6 NNE 9 13 5 7 1013.7 1010.7 0.0
17/09:30am 24.0 24.0 14.1 54 6.0 N 7 9 4 5 1013.9 1010.9 0.0
17/09:00am 24.1 23.0 13.0 50 6.6 NE 11 17 6 9 1013.7 1010.7 0.0
17/08:30am 24.3 23.3 14.7 55 5.9 NNE 13 20 7 11 1013.5 1010.5 0.0
17/08:00am 22.0 19.3 12.8 56 5.4 NNE 19 24 10 13 1013.3 1010.3 0.0
17/07:30am 22.5 19.1 12.4 52 5.9 NNE 22 28 12 15 1013.2 1010.2 0.0
17/07:00am 22.0 18.6 12.5 54 5.6 NNE 22 28 12 15 1013.4 1010.4 0.0
17/06:30am 21.9 17.7 12.5 55 5.5 N 26 35 14 19 1013.0 1009.9 0.0
17/06:00am 21.4 17.1 12.0 55 5.5 NNE 26 33 14 18 1012.6 1009.6 0.0
17/05:30am 21.7 16.8 11.4 52 5.9 NNE 28 33 15 18 1013.0 1009.9 0.0
17/05:00am 21.8 17.5 10.9 50 6.2 NNE 24 35 13 19 1012.9 1009.8 0.0
17/04:30am 22.8 17.5 11.2 48 6.7 NNE 30 41 16 22 1012.9 1009.8 0.0
17/04:00am 22.5 16.7 9.6 44 7.2 NNE 30 37 16 20 1013.2 1010.2 0.0
17/03:30am 22.4 15.7 8.1 40 7.8 N 33 41 18 22 1013.1 1010.1 0.0
17/03:00am 22.2 15.7 8.3 41 7.6 NNE 32 43 17 23 1013.3 1010.3 0.0
17/02:30am 21.6 15.8 7.8 41 7.4 N 28 37 15 20 1013.7 1010.7 0.0
17/02:00am 21.4 16.2 7.3 40 7.5 NNE 24 32 13 17 1014.2 1011.2 0.0
17/01:30am 21.0 17.3 8.0 43 7.0 NNE 17 22 9 12 1015.1 1012.1 0.0
17/01:00am 20.3 18.3 8.6 47 6.4 NE 9 15 5 8 1015.4 1012.5 0.0
17/12:30am 19.5 18.5 8.8 50 5.8 NNW 4 11 2 6 1016.3 1013.3 0.0
17/12:00am 20.0 18.0 8.7 48 6.1 WNW 9 15 5 8 1016.6 1013.7 0.0
 
Date/Time
EDT
Temp
°C
App
Temp
°C
Dew
Point
°C
Rel
Hum
%
Delta-T
°C
Wind Press
QNH
hPa
Press
MSL
hPa
Rain since
9am
mm
Dir  Spd
km/h
Gust
km/h
Spd
kts
Gust
kts
16/11:30pm 20.2 17.4 8.5 47 6.3 NNE 13 17 7 9 1016.5 1013.6 0.0
16/11:00pm 19.7 17.1 9.3 51 5.7 NNE 13 17 7 9 1017.0 1014.0 0.0
16/10:30pm 18.9 16.7 9.4 54 5.2 NNE 11 15 6 8 1017.5 1014.5 0.0
16/10:00pm 19.9 18.0 9.2 50 5.9 N 9 11 5 6 1017.7 1014.8 0.0
16/09:30pm 19.5 18.0 9.1 51 5.7 WSW 7 9 4 5 1018.2 1015.3 0.0
16/09:00pm 20.2 19.3 7.9 45 6.6 SW 2 7 1 4 1018.3 1015.4 0.0
16/08:30pm 19.9 17.7 9.5 51 5.7 WSW 11 13 6 7 1018.1 1015.2 0.0
16/08:00pm 20.8 18.4 10.0 50 6.0 WSW 13 19 7 10 1017.5 1014.5 0.0
16/07:30pm 23.1 21.0 8.4 39 8.1 S 9 15 5 8 1016.6 1013.7 0.0
16/07:00pm 24.0 23.2 11.7 46 7.2 SSW 7 13 4 7 1016.2 1013.2 0.0
16/06:30pm 24.9 22.5 11.5 43 7.8 SSW 15 24 8 13 1016.0 1013.0 0.0
16/06:00pm 24.1 20.5 11.8 46 7.2 S 22 33 12 18 1015.0 1012.0 0.0
16/05:30pm 28.1 26.5 12.8 38 9.3 SSW 13 22 7 12 1013.8 1010.8 0.0
16/05:00pm 30.8 29.6 12.7 33 11.1 S 11 20 6 11 1013.9 1010.9 0.0
16/04:30pm 29.6 28.5 14.2 39 9.6 SW 13 20 7 11 1013.7 1010.7 0.0
16/04:00pm 31.4 30.9 15.0 37 10.4 SSW 11 22 6 12 1013.4 1010.4 0.0
16/03:30pm 32.0 30.5 14.2 34 11.2 SW 15 22 8 12 1013.4 1010.4 0.0
16/03:00pm 34.4 31.8 12.1 26 13.7 S 17 26 9 14 1012.9 1009.8 0.0
16/02:30pm 34.7 33.0 12.4 26 13.8 S 13 20 7 11 1012.6 1009.6 0.0
16/02:00pm 35.1 32.9 10.9 23 14.6 S 13 24 7 13 1013.1 1010.1 0.0
16/01:30pm 34.7 32.6 11.2 24 14.2 S 13 22 7 12 1013.1 1010.1 0.0
16/01:00pm 35.1 32.7 10.2 22 14.9 SE 13 22 7 12 1013.2 1010.2 0.0
16/12:30pm 35.4 33.5 9.0 20 15.5 NE 9 13 5 7 1013.3 1010.3 0.0
16/12:00pm 34.4 32.4 10.3 23 14.4 NE 11 19 6 10 1013.6 1010.6 0.0
16/11:30am 33.1 30.8 10.4 25 13.5 NE 13 17 7 9 1013.8 1010.8 0.0
16/11:00am 31.6 30.4 12.9 32 11.5 NE 11 15 6 8 1014.0 1011.0 0.0
16/10:30am 30.5 28.6 12.9 34 10.8 NNE 15 19 8 10 1014.2 1011.2 0.0
16/10:00am 28.9 27.4 13.2 38 9.6 NNE 13 17 7 9 1014.4 1011.4 0.0
16/09:30am 27.2 25.5 13.5 42 8.4 N 15 20 8 11 1014.4 1011.4 0.0
16/09:00am 26.7 24.4 13.1 43 8.2 NNE 17 20 9 11 1014.4 1011.4 0.0
16/08:30am 25.3 23.0 10.4 39 8.6 NNE 13 20 7 11 1014.4 1011.4 0.0
16/08:00am 24.4 22.4 11.4 44 7.6 NNE 13 20 7 11 1014.3 1011.3 0.0
16/07:30am 23.5 20.6 10.9 45 7.3 N 17 20 9 11 1014.2 1011.2 0.0
16/07:00am 22.1 19.6 9.6 45 7.0 NNE 13 19 7 10 1013.9 1010.9 0.0
16/06:30am 22.0 18.9 8.9 43 7.2 NNE 15 19 8 10 1013.6 1010.6 0.0
16/06:00am 19.7 17.4 9.0 50 5.8 NNE 11 17 6 9 1013.3 1010.3 0.0
16/05:30am 19.8 16.9 9.7 52 5.6 NNE 15 19 8 10 1013.2 1010.2 0.0
16/05:00am 20.1 16.0 8.8 48 6.2 N 20 24 11 13 1013.1 1010.1 0.0
16/04:30am 19.2 16.1 8.8 51 5.6 NNE 15 20 8 11 1013.0 1009.9 0.0
16/04:00am 20.8 18.0 8.4 45 6.7 N 13 15 7 8 1012.9 1009.8 0.0
16/03:30am 20.6 17.5 8.9 47 6.4 N 15 19 8 10 1013.1 1010.1 0.0
16/03:00am 19.8 17.2 9.4 51 5.7 NNE 13 19 7 10 1013.4 1010.4 0.0
16/02:30am 18.1 16.0 9.7 58 4.6 N 11 15 6 8 1013.5 1010.5 0.0
16/02:00am 21.9 19.4 9.8 46 6.8 N 13 17 7 9 1013.8 1010.8 0.0
16/01:30am 20.4 18.3 9.6 50 6.0 N 11 15 6 8 1014.3 1011.3 0.0
16/01:00am 18.7 17.3 10.8 60 4.4 N 9 11 5 6 1014.6 1011.6 0.0
16/12:30am 19.6 19.2 9.8 53 5.4 NW 2 6 1 3 1015.1 1012.1 0.0
16/12:00am 19.8 20.1 11.0 57 5.0 CALM 0 0 0 0 1015.0 1012.0 0.0
 
Date/Time
EDT
Temp
°C
App
Temp
°C
Dew
Point
°C
Rel
Hum
%
Delta-T
°C
Wind Press
QNH
hPa
Press
MSL
hPa
Rain since
9am
mm
Dir  Spd
km/h
Gust
km/h
Spd
kts
Gust
kts
15/11:30pm 20.3 20.3 12.3 60 4.6 NNW 4 6 2 3 1015.1 1012.1 0.0
15/11:00pm 21.3 22.4 13.5 61 4.6 CALM 0 0 0 0 1015.1 1012.1 0.0
15/10:30pm 20.6 21.2 14.3 67 3.8 N 4 9 2 5 1015.3 1012.4 0.0
15/10:00pm 24.1 23.2 13.6 52 6.3 N 11 13 6 7 1015.2 1012.2 0.0
15/09:30pm 22.4 22.1 14.5 61 4.8 NNE 9 11 5 6 1015.1 1012.1 0.0
15/09:00pm 24.4 24.2 14.8 55 5.9 NW 9 11 5 6 1015.3 1012.4 0.0
15/08:30pm 25.3 26.4 14.7 51 6.5 SSW 2 6 1 3 1014.7 1011.7 0.0
15/08:00pm 26.0 26.5 15.1 51 6.8 SW 6 7 3 4 1014.6 1011.6 0.0
15/07:30pm 27.4 27.2 14.8 46 7.8 SSW 9 17 5 9 1014.2 1011.2 0.0
15/07:00pm 29.7 28.0 11.2 31 11.0 SSW 11 19 6 10 1013.8 1010.8 0.0
15/06:30pm 32.4 30.7 9.9 25 13.3 SSW 9 17 5 9 1013.3 1010.3 0.0
15/06:00pm 32.6 30.6 10.0 25 13.4 S 11 19 6 10 1013.0 1009.9 0.0
15/05:30pm 31.8 30.0 11.0 28 12.4 SSW 11 20 6 11 1013.0 1009.9 0.0
15/05:00pm 32.7 30.5 9.5 24 13.6 SSW 11 22 6 12 1012.5 1009.5 0.0
15/04:30pm 33.1 30.0 10.4 25 13.5 S 17 28 9 15 1012.2 1009.2 0.0
15/04:00pm 36.0 33.1 12.9 25 14.4 WNW 20 32 11 17 1012.2 1009.2 0.0
15/03:30pm 35.4 32.2 11.1 23 14.8 WNW 19 32 10 17 1012.1 1009.1 0.0
15/03:00pm 34.4 31.3 8.9 21 14.9 WNW 15 26 8 14 1012.2 1009.2 0.0
15/02:30pm 35.4 32.3 11.7 23 14.5 WSW 19 28 10 15 1012.4 1009.4 0.0
15/02:00pm 35.1 32.1 12.1 25 14.2 WNW 19 28 10 15 1012.5 1009.5 0.0
15/01:30pm 34.6 32.9 12.3 26 13.7 WSW 13 28 7 15 1012.8 1009.7 0.0
15/01:00pm 34.2 32.1 13.6 29 12.9 WNW 17 22 9 12 1013.1 1010.1 0.0
15/12:30pm 32.4 28.2 7.3 21 14.2 WNW 19 28 10 15 1013.3 1010.3 0.0
15/12:00pm 33.6 29.6 8.3 21 14.6 WNW 19 28 10 15 1013.4 1010.4 0.0
15/11:30am 33.0 30.1 10.9 26 13.3 W 17 24 9 13 1013.5 1010.5 0.0
15/11:00am 33.0 31.4 11.5 27 13.0 W 11 20 6 11 1013.7 1010.7 0.0
15/10:30am 30.9 32.6 19.3 50 7.8 NNE 9 13 5 7 1014.0 1011.0 0.0
15/10:00am 28.8 29.4 18.6 54 6.7 NNE 13 17 7 9 1014.3 1011.3 0.0
15/09:30am 27.6 27.2 18.0 55 6.3 NNE 17 20 9 11 1014.5 1011.5 0.0
15/09:00am 26.6 26.2 17.1 56 6.1 NNE 15 17 8 9 1014.5 1011.5 0.0
15/08:30am 25.1 24.6 16.8 60 5.3 NNE 15 20 8 11 1014.5 1011.5 0.0
15/08:00am 23.9 23.8 16.9 65 4.4 NNE 13 19 7 10 1014.3 1011.3 0.0
15/07:30am 22.7 21.4 16.7 69 3.8 NNE 19 24 10 13 1014.0 1011.0 0.0
15/07:00am 21.6 20.2 16.6 73 3.1 NNE 19 24 10 13 1013.9 1010.9 0.0
15/06:30am 20.0 19.5 16.0 78 2.5 NNE 13 17 7 9 1013.7 1010.7 0.0
15/06:00am 19.7 19.1 15.6 77 2.5 NNE 13 19 7 10 1013.6 1010.6 0.0
15/05:30am 20.0 18.2 15.6 76 2.7 NNE 19 20 10 11 1013.5 1010.5 0.0
15/05:00am 20.0 20.4 15.4 75 2.8 N 7 11 4 6 1013.5 1010.5 0.0
15/04:30am 20.8 19.8 15.6 72 3.2 NNE 15 20 8 11 1013.4 1010.4 0.0
15/04:00am 20.0 20.0 15.2 74 2.9 NNE 9 13 5 7 1013.5 1010.5 0.0
15/03:30am 19.3 18.2 15.2 77 2.5 NNE 15 19 8 10 1013.7 1010.7 0.0
15/03:00am 20.1 18.9 15.1 73 3.0 NNE 15 17 8 9 1013.9 1010.9 0.0
15/02:30am 20.0 19.1 14.8 72 3.1 N 13 17 7 9 1014.5 1011.5 0.0
15/02:00am 20.9 19.9 14.5 67 3.9 N 13 15 7 8 1014.8 1011.8 0.0
15/01:30am 21.2 19.8 14.6 66 4.0 N 15 17 8 9 1015.2 1012.2 0.0
15/01:00am 20.7 20.9 14.6 68 3.7 N 7 9 4 5 1015.4 1012.5 0.0
15/12:30am 20.1 20.3 14.2 69 3.5 N 6 9 3 5 1015.6 1012.6 0.0
15/12:00am 20.0 19.8 14.6 71 3.3 N 9 11 5 6 1015.4 1012.5 0.0
 
Date/Time
EDT
Temp
°C
App
Temp
°C
Dew
Point
°C
Rel
Hum
%
Delta-T
°C
Wind Press
QNH
hPa
Press
MSL
hPa
Rain since
9am
mm
Dir  Spd
km/h
Gust
km/h
Spd
kts
Gust
kts
14/11:30pm 20.1 20.9 13.8 67 3.8 WNW 2 7 1 4 1015.7 1012.7 0.0
14/11:00pm 20.7 20.6 13.2 62 4.4 N 6 9 3 5 1016.0 1013.0 0.0
14/10:30pm 21.5 21.7 13.2 59 4.9 NNE 4 9 2 5 1016.4 1013.4 0.0
14/10:00pm 22.3 23.4 13.4 57 5.3 CALM 0 0 0 0 1016.3 1013.3 0.0
14/09:30pm 24.2 24.1 13.4 51 6.5 W 6 7 3 4 1016.3 1013.3 0.0
14/09:00pm 24.2 24.5 13.4 51 6.5 SW 4 9 2 5 1016.0 1013.0 0.0
14/08:30pm 25.5 26.2 13.4 47 7.3 SW 2 7 1 4 1015.8 1012.8 0.0
14/08:00pm 27.6 27.3 13.2 41 8.8 S 7 13 4 7 1015.4 1012.5 0.0
14/07:30pm 28.5 27.8 13.2 39 9.3 SSW 9 13 5 7 1015.1 1012.1 0.0
14/07:00pm 29.1 28.4 13.3 37 9.7 SSW 9 15 5 8 1014.7 1011.7 0.0
14/06:30pm 29.5 28.0 14.1 39 9.6 S 15 22 8 12 1014.5 1011.5 0.0
14/06:00pm 29.9 28.2 13.6 36 10.1 S 15 24 8 13 1014.2 1011.2 0.0
14/05:30pm 30.6 29.0 15.1 39 9.8 S 17 28 9 15 1013.8 1010.8 0.0
14/05:00pm 31.8 30.5 14.9 36 10.7 S 15 26 8 14 1013.5 1010.5 0.0
14/04:30pm 32.2 31.0 13.9 33 11.4 SSW 13 26 7 14 1013.3 1010.3 0.0
14/04:00pm 33.9 29.7 11.1 25 13.8 WNW 24 39 13 21 1013.5 1010.5 0.0
14/03:30pm 34.2 31.0 10.1 23 14.3 W 17 24 9 13 1013.8 1010.8 0.0
14/03:00pm 33.7 29.7 10.3 24 13.9 WNW 22 37 12 20 1014.2 1011.2 0.0
14/02:30pm 33.3 29.7 12.9 29 12.6 WNW 24 35 13 19 1014.4 1011.4 0.0
14/02:00pm 33.1 28.3 11.6 27 13.0 W 28 43 15 23 1014.6 1011.6 0.0
14/01:54pm 33.0 28.0 10.9 26 13.3 WSW 28 46 15 25 1014.5 - 0.0

Other Formats:

Comma delimited format used in spreadsheet applications
http://www.bom.gov.au/fwo/IDV60801/IDV60801.94913.axf

JavaScript Object Notation format (JSON) in row-major order
http://www.bom.gov.au/fwo/IDV60801/IDV60801.94913.json